Detalii statie BEREGSANA BEREGSAU [00001991]

Toti senzorii

Date Temperatura solului [C]Precipitatii [mm]Voltaj baterie [mV]Leaf Wetness [Min]HC Air temperature [C]HC Relative humidity [%]Punctul de roua [C]
medieminmaxsumaultimatimpmedieminmaxmediemediemin
2018-10-13 15:00:00 13.8 13.7 14.1 0 7314
2018-10-13 16:00:00 14.2 14.1 14.5 0 7304
2018-10-13 17:00:00 14.6 14.3 14.9 0 7304
2018-10-13 18:00:00 14.9 14.7 15.1 0 7128
2018-10-13 19:00:00 15 15 15.2 0 7040
2018-10-13 20:00:00 15.2 15.1 15.3 0 6972
2018-10-13 21:00:00 15.1 15 15.2 0 6962
2018-10-13 22:00:00 14.8 14.8 15 0 6914
2018-10-13 23:00:00 14.7 14.5 15 0 6914
2018-10-14 00:00:00 14.5 14.4 14.8 0 6914
2018-10-14 01:00:00 14.3 14.3 14.5 0 6894
2018-10-14 02:00:00 14.1 14 14.2 0 6904
2018-10-14 03:00:00 13.8 13.6 14 0 6904
2018-10-14 04:00:00 13.6 13.5 13.9 0 6894
2018-10-14 05:00:00 13.3 13.2 13.5 0 6894
2018-10-14 06:00:00 13.1 13 13.4 0 6894
2018-10-14 07:00:00 12.9 12.8 13.1 0 6854
2018-10-14 08:00:00 12.8 12.7 13 0 6914
2018-10-14 09:00:00 12.6 12.6 12.7 0 6982
2018-10-14 10:00:00 12.6 12.6 12.7 0 7108
2018-10-14 11:00:00 12.7 12.7 12.9 0 7186
2018-10-14 12:00:00 12.8 12.6 13 0 7314
2018-10-14 13:00:00 13 12.9 13.1 0 7304
2018-10-14 14:00:00 13.1 13 13.2 0 7304
2018-10-14 15:00:00 13.4 13.2 13.5 0 7304
2018-10-14 16:00:00 13.6 13.5 13.8 0 7304
2018-10-14 17:00:00 13.9 13.8 14.1 0 7304
2018-10-14 18:00:00 14.1 13.9 14.4 0 7128
2018-10-14 19:00:00 14.1 14.1 14.4 0 7040
2018-10-14 20:00:00 14.1 13.9 14.4 0 6972
2018-10-14 21:00:00 14 13.9 14.2 0 6962
2018-10-14 22:00:00 13.9 13.8 14.1 0 6914
2018-10-14 23:00:00 13.7 13.6 13.8 0 6914
2018-10-15 00:00:00 13.5 13.4 13.7 0 6914
2018-10-15 01:00:00 13.3 13.2 13.4 0 6894
2018-10-15 02:00:00 13 12.9 13.2 0 6894
2018-10-15 03:00:00 12.8 12.7 13 0 6894
2018-10-15 04:00:00 12.6 12.4 12.8 0 6894
2018-10-15 05:00:00 12.4 12.2 12.5 0 6894
2018-10-15 06:00:00 12.1 12.1 12.3 0 6884
2018-10-15 07:00:00 11.9 11.7 12.1 0 6834
2018-10-15 08:00:00 11.7 11.6 11.9 0 6894
2018-10-15 09:00:00 11.5 11.4 11.7 0 6952
2018-10-15 10:00:00 11.6 11.5 11.7 0 7060
2018-10-15 11:00:00 11.7 11.6 12 0 7108
2018-10-15 12:00:00 11.9 11.8 12 0 7176
2018-10-15 13:00:00 12 12 12.3 0 7284
2018-10-15 14:00:00 12.2 12.1 12.4 0 7304